createdAt,value
2023-04-01T00:01:01.322Z,98574.40
2023-04-01T00:02:33.428Z,98577.40
2023-04-01T00:04:05.873Z,98575.40
2023-04-01T00:05:37.729Z,98570.20
2023-04-01T00:07:10.172Z,98573.80
2023-04-01T00:08:42.049Z,98574.00
2023-04-01T00:10:16.468Z,98572.40
2023-04-01T00:11:48.164Z,98573.60
2023-04-01T00:13:20.803Z,98573.20
2023-04-01T00:14:52.672Z,98570.60
2023-04-01T00:16:24.602Z,98572.40
2023-04-01T00:17:56.641Z,98578.00
2023-04-01T00:19:29.117Z,98575.40
2023-04-01T00:21:00.987Z,98572.00
2023-04-01T00:22:32.783Z,98574.60
2023-04-01T00:24:04.687Z,98574.80
2023-04-01T00:25:36.493Z,98573.80
2023-04-01T00:27:09.117Z,98578.00
2023-04-01T00:28:41.536Z,98571.40
2023-04-01T00:30:13.705Z,98571.00
2023-04-01T00:31:45.866Z,98566.80
2023-04-01T00:33:18.246Z,98563.40
2023-04-01T00:34:54.053Z,98566.20
2023-04-01T00:36:26.130Z,98565.40
2023-04-01T00:37:58.214Z,98565.60
2023-04-01T00:39:31.383Z,98567.20
2023-04-01T00:41:03.268Z,98565.20
2023-04-01T00:42:35.093Z,98561.20
2023-04-01T00:44:28.287Z,98566.60
2023-04-01T00:46:00.401Z,98571.00
2023-04-01T00:47:32.288Z,98562.40
2023-04-01T00:49:04.216Z,98565.80
2023-04-01T00:50:38.101Z,98567.20
2023-04-01T00:52:16.469Z,98565.00
2023-04-01T00:53:53.550Z,98561.00
2023-04-01T00:55:29.370Z,98563.20
2023-04-01T00:57:15.370Z,98566.20
2023-04-01T00:58:53.145Z,98565.60
2023-04-01T01:00:24.924Z,98564.20
2023-04-01T01:01:56.730Z,98565.40
2023-04-01T01:06:23.104Z,98562.80
2023-04-01T01:08:18.969Z,98555.80
2023-04-01T01:09:59.761Z,98552.80
2023-04-01T01:11:56.859Z,98556.40
2023-04-01T01:14:14.861Z,98557.40
2023-04-01T01:16:06.659Z,98553.60
2023-04-01T01:17:59.493Z,98552.00
2023-04-01T01:19:54.263Z,98555.20
2023-04-01T01:21:46.433Z,98556.20
2023-04-01T01:23:36.384Z,98552.20
2023-04-01T01:25:26.700Z,98551.60
2023-04-01T01:27:04.790Z,98553.60
2023-04-01T01:29:25.582Z,98548.60
2023-04-01T01:31:37.719Z,98549.40
2023-04-01T01:33:59.962Z,98547.20
2023-04-01T01:35:39.562Z,98549.00
2023-04-01T01:37:18.557Z,98548.80
2023-04-01T01:38:52.689Z,98551.40
2023-04-01T01:40:28.568Z,98558.60
2023-04-01T01:42:07.248Z,98552.80
2023-04-01T01:43:47.476Z,98546.80
2023-04-01T01:45:26.210Z,98551.80
2023-04-01T01:46:59.749Z,98555.60
2023-04-01T01:48:33.358Z,98548.40
2023-04-01T01:50:07.257Z,98551.00
2023-04-01T01:51:40.060Z,98547.60
2023-04-01T01:53:14.930Z,98550.00
2023-04-01T01:54:55.936Z,98546.20
2023-04-01T01:56:31.726Z,98541.00
2023-04-01T01:58:33.761Z,98546.40
2023-04-01T02:00:15.415Z,98544.80
2023-04-01T02:01:54.703Z,98541.00
2023-04-01T02:03:32.050Z,98541.00
2023-04-01T02:05:06.706Z,98545.00
2023-04-01T02:06:47.440Z,98542.00
2023-04-01T02:08:31.674Z,98542.60
2023-04-01T02:10:04.972Z,98537.80
2023-04-01T02:11:44.999Z,98533.80
2023-04-01T02:13:28.473Z,98535.00
2023-04-01T02:15:10.167Z,98533.00
2023-04-01T02:16:58.128Z,98534.00
2023-04-01T02:18:32.973Z,98531.20
2023-04-01T02:20:22.960Z,98531.60
2023-04-01T02:22:02.250Z,98533.00
2023-04-01T02:23:39.191Z,98534.00
2023-04-01T02:25:17.854Z,98536.80
2023-04-01T02:26:52.443Z,98529.00
2023-04-01T02:28:26.142Z,98540.40
2023-04-01T02:29:59.002Z,98538.40
2023-04-01T02:31:32.640Z,98536.40
2023-04-01T02:33:06.494Z,98538.20
2023-04-01T02:34:39.084Z,98539.60
2023-04-01T02:36:16.416Z,98541.20
2023-04-01T02:37:53.033Z,98539.20
2023-04-01T02:39:26.558Z,98540.20
2023-04-01T02:41:01.948Z,98540.20
2023-04-01T02:42:34.422Z,98545.20
2023-04-01T02:44:07.202Z,98543.40
2023-04-01T02:45:39.122Z,98541.40
2023-04-01T02:47:10.926Z,98541.40
2023-04-01T02:48:42.754Z,98542.40
2023-04-01T02:50:14.548Z,98543.20
2023-04-01T02:51:46.265Z,98544.40
2023-04-01T02:53:18.399Z,98549.00
2023-04-01T02:54:50.180Z,98544.00
2023-04-01T02:56:22.376Z,98543.20
2023-04-01T02:57:54.259Z,98551.60
2023-04-01T02:59:26.004Z,98547.80
2023-04-01T03:00:57.886Z,98551.40
2023-04-01T03:02:29.750Z,98550.00
2023-04-01T03:04:01.586Z,98551.00
2023-04-01T03:05:33.472Z,98556.20
2023-04-01T03:07:05.785Z,98556.40
2023-04-01T03:08:37.605Z,98559.80
2023-04-01T03:10:10.394Z,98561.40
2023-04-01T03:11:42.077Z,98562.80
2023-04-01T03:13:13.786Z,98564.20
2023-04-01T03:14:45.729Z,98559.00
2023-04-01T03:16:17.539Z,98563.20
2023-04-01T03:17:49.372Z,98561.80
2023-04-01T03:19:21.399Z,98565.00
2023-04-01T03:20:53.322Z,98562.60
2023-04-01T03:22:25.299Z,98562.20
2023-04-01T03:23:57.102Z,98564.80
2023-04-01T03:25:29.728Z,98562.00
2023-04-01T03:27:01.587Z,98559.40
2023-04-01T03:28:33.301Z,98567.20
2023-04-01T03:30:07.037Z,98566.60
2023-04-01T03:31:39.852Z,98567.80
2023-04-01T03:33:11.674Z,98570.60
2023-04-01T03:34:43.522Z,98567.40
2023-04-01T03:36:16.194Z,98578.00
2023-04-01T03:37:48.124Z,98571.60
2023-04-01T03:39:20.506Z,98571.60
2023-04-01T03:40:52.724Z,98570.40
2023-04-01T03:42:24.601Z,98573.40
2023-04-01T03:43:56.385Z,98576.40
2023-04-01T03:45:28.254Z,98571.40
2023-04-01T03:47:01.485Z,98575.60
2023-04-01T03:48:33.850Z,98576.40
2023-04-01T03:50:08.008Z,98571.00
2023-04-01T03:51:44.710Z,98571.60
2023-04-01T03:53:16.729Z,98572.20
2023-04-01T03:54:48.692Z,98576.40
2023-04-01T03:56:20.692Z,98573.40
2023-04-01T03:57:52.387Z,98573.40
2023-04-01T03:59:24.303Z,98574.60
2023-04-01T04:00:56.332Z,98573.40
2023-04-01T04:02:28.078Z,98580.20
2023-04-01T04:04:02.180Z,98577.80
2023-04-01T04:05:34.172Z,98576.60
2023-04-01T04:07:06.456Z,98575.20
2023-04-01T04:08:51.133Z,98576.00
2023-04-01T04:10:24.245Z,98571.20
2023-04-01T04:11:56.198Z,98574.60
2023-04-01T04:13:28.094Z,98578.60
2023-04-01T04:15:05.878Z,98574.80
2023-04-01T04:16:38.206Z,98574.80
2023-04-01T04:18:10.277Z,98579.80
2023-04-01T04:19:42.129Z,98580.00
2023-04-01T04:21:16.000Z,98581.00
2023-04-01T04:22:47.902Z,98586.80
2023-04-01T04:24:19.675Z,98586.00
2023-04-01T04:26:10.571Z,98587.80
2023-04-01T04:27:42.719Z,98586.20
2023-04-01T04:29:16.425Z,98588.00
2023-04-01T04:30:48.556Z,98589.20
2023-04-01T04:32:20.855Z,98587.60
2023-04-01T04:33:54.071Z,98589.80
2023-04-01T04:35:26.169Z,98594.20
2023-04-01T04:36:57.923Z,98590.40
2023-04-01T04:38:31.622Z,98592.20
2023-04-01T04:40:03.791Z,98591.40
2023-04-01T04:41:38.989Z,98592.00
2023-04-01T04:43:13.921Z,98596.20
2023-04-01T04:44:45.803Z,98594.80
2023-04-01T04:46:18.185Z,98592.60
2023-04-01T04:47:51.904Z,98596.60
2023-04-01T04:49:24.185Z,98600.60
2023-04-01T04:50:56.273Z,98596.20
2023-04-01T04:52:28.780Z,98595.40
2023-04-01T04:54:01.577Z,98601.60
2023-04-01T04:55:49.559Z,98604.40
2023-04-01T04:57:39.850Z,98600.40
2023-04-01T04:59:11.771Z,98604.20
2023-04-01T05:00:55.285Z,98606.00
2023-04-01T05:02:34.501Z,98604.20
2023-04-01T05:04:06.419Z,98603.20
2023-04-01T05:05:38.939Z,98602.60
2023-04-01T05:07:11.975Z,98607.80
2023-04-01T05:08:45.901Z,98609.20
2023-04-01T05:10:17.818Z,98611.20
2023-04-01T05:11:49.776Z,98606.60
2023-04-01T05:13:21.759Z,98608.00
2023-04-01T05:14:53.621Z,98607.40
2023-04-01T05:16:25.643Z,98614.60
2023-04-01T05:17:57.554Z,98611.20
2023-04-01T05:19:29.480Z,98610.60
2023-04-01T05:21:01.969Z,98612.60
2023-04-01T05:22:34.363Z,98609.80
2023-04-01T05:24:10.638Z,98619.00
2023-04-01T05:25:43.702Z,98618.60
2023-04-01T05:27:16.269Z,98616.40
2023-04-01T05:28:48.445Z,98617.80
2023-04-01T05:30:20.679Z,98614.80
2023-04-01T05:32:05.304Z,98616.80
2023-04-01T05:33:38.084Z,98618.60
2023-04-01T05:35:10.885Z,98616.60
2023-04-01T05:36:44.030Z,98622.80
2023-04-01T05:38:16.018Z,98620.20
2023-04-01T05:39:47.845Z,98621.00
2023-04-01T05:41:19.646Z,98624.60
2023-04-01T05:42:51.701Z,98627.20
2023-04-01T05:44:23.473Z,98627.80
2023-04-01T05:46:15.606Z,98627.00
2023-04-01T05:47:55.528Z,98626.40
2023-04-01T05:49:28.929Z,98630.80
2023-04-01T05:51:01.365Z,98628.60
2023-04-01T05:52:33.802Z,98625.80
2023-04-01T05:54:07.253Z,98634.80
2023-04-01T05:55:39.132Z,98638.60
2023-04-01T05:57:11.037Z,98642.20
2023-04-01T05:58:42.860Z,98637.80
2023-04-01T06:00:16.760Z,98638.20
2023-04-01T06:01:48.579Z,98639.60
2023-04-01T06:03:20.811Z,98637.60
2023-04-01T06:05:24.701Z,98637.20
2023-04-01T06:06:56.457Z,98640.60
2023-04-01T06:08:32.432Z,98638.40
2023-04-01T06:10:14.246Z,98639.60
2023-04-01T06:12:26.364Z,98642.60
2023-04-01T06:14:37.401Z,98642.60
2023-04-01T06:16:40.924Z,98641.40
2023-04-01T06:18:26.493Z,98644.20
2023-04-01T06:20:23.319Z,98645.40
2023-04-01T06:22:34.678Z,98648.00
2023-04-01T06:24:20.224Z,98648.60
2023-04-01T06:26:29.406Z,98652.60
2023-04-01T06:28:30.824Z,98655.00
2023-04-01T06:30:29.439Z,98653.80
2023-04-01T06:32:18.774Z,98651.80
2023-04-01T06:34:27.590Z,98655.80
2023-04-01T06:36:43.594Z,98656.80
2023-04-01T06:38:38.477Z,98661.20
2023-04-01T06:40:45.441Z,98659.40
2023-04-01T06:43:07.854Z,98661.20
2023-04-01T06:45:17.865Z,98661.00
2023-04-01T06:47:33.303Z,98662.00
2023-04-01T06:49:53.375Z,98667.00
2023-04-01T06:52:12.073Z,98666.40
2023-04-01T06:54:18.415Z,98670.00
2023-04-01T06:56:16.033Z,98671.40
2023-04-01T06:58:17.708Z,98671.60
2023-04-01T06:59:50.279Z,98674.40
2023-04-01T07:01:30.788Z,98665.80
2023-04-01T07:03:18.161Z,98677.80
2023-04-01T07:04:56.887Z,98676.40
2023-04-01T07:07:03.063Z,98676.80
2023-04-01T07:08:42.590Z,98672.40
2023-04-01T07:10:27.387Z,98671.60
2023-04-01T07:12:50.976Z,98679.40
2023-04-01T07:14:46.325Z,98676.40
2023-04-01T07:16:48.888Z,98680.80
2023-04-01T07:18:58.657Z,98685.60
2023-04-01T07:20:37.934Z,98687.40
2023-04-01T07:22:37.788Z,98683.60
2023-04-01T07:24:42.645Z,98688.60
2023-04-01T07:26:26.089Z,98690.00
2023-04-01T07:28:06.221Z,98692.60
2023-04-01T07:29:41.347Z,98694.20
2023-04-01T07:32:00.986Z,98695.00
2023-04-01T07:34:13.856Z,98697.00
2023-04-01T07:36:24.142Z,98698.00
2023-04-01T07:38:21.790Z,98701.60
2023-04-01T07:40:22.574Z,98698.60
2023-04-01T07:41:59.805Z,98695.00
2023-04-01T07:44:13.037Z,98700.60
2023-04-01T07:46:21.670Z,98701.80
2023-04-01T07:48:22.049Z,98711.00
2023-04-01T07:50:29.575Z,98706.80
2023-04-01T07:52:36.899Z,98707.40
2023-04-01T07:54:45.511Z,98714.40
2023-04-01T07:56:43.438Z,98714.20
2023-04-01T07:58:52.738Z,98714.60
2023-04-01T08:01:22.764Z,98718.80
2023-04-01T08:03:53.344Z,98716.40
2023-04-01T08:05:31.908Z,98720.40
2023-04-01T08:07:31.414Z,98727.40
2023-04-01T08:09:52.539Z,98722.20
2023-04-01T08:12:59.296Z,98730.80
2023-04-01T08:15:23.087Z,98730.00
2023-04-01T08:17:51.518Z,98733.00
2023-04-01T08:20:06.431Z,98732.20
2023-04-01T08:21:52.128Z,98735.40
2023-04-01T08:23:32.818Z,98737.00
2023-04-01T08:25:20.636Z,98735.40
2023-04-01T08:27:00.369Z,98743.20
2023-04-01T08:29:05.344Z,98740.00
2023-04-01T08:31:04.954Z,98744.80
2023-04-01T08:32:42.890Z,98741.40
2023-04-01T08:34:39.926Z,98750.00
2023-04-01T08:36:17.196Z,98752.60
2023-04-01T08:37:54.691Z,98743.60
2023-04-01T08:39:41.938Z,98747.80
2023-04-01T08:41:58.721Z,98750.80
2023-04-01T08:43:51.980Z,98754.80
2023-04-01T08:45:29.732Z,98755.80
2023-04-01T08:47:24.932Z,98758.00
2023-04-01T08:49:44.353Z,98759.20
2023-04-01T08:51:49.499Z,98769.60
2023-04-01T08:53:47.744Z,98768.60
2023-04-01T08:55:37.913Z,98767.40
2023-04-01T08:57:58.656Z,98770.20
2023-04-01T09:00:33.490Z,98766.60
2023-04-01T09:03:19.549Z,98769.60
2023-04-01T09:05:43.076Z,98775.00
2023-04-01T09:07:51.907Z,98779.20
2023-04-01T09:09:48.110Z,98788.20
2023-04-01T09:12:09.116Z,98782.00
2023-04-01T09:14:28.337Z,98787.00
2023-04-01T09:16:41.533Z,98787.40
2023-04-01T09:18:25.562Z,98790.00
2023-04-01T09:20:31.097Z,98790.20
2023-04-01T09:22:42.403Z,98797.00
2023-04-01T09:24:53.143Z,98798.80
2023-04-01T09:27:04.950Z,98797.40
2023-04-01T09:28:56.013Z,98799.20
2023-04-01T09:31:06.454Z,98805.60
2023-04-01T09:32:44.889Z,98802.80
2023-04-01T09:35:45.424Z,98813.40
2023-04-01T09:37:33.177Z,98812.40
2023-04-01T09:39:38.937Z,98814.80
2023-04-01T09:41:54.827Z,98818.80
2023-04-01T09:44:35.888Z,98818.20
2023-04-01T09:46:55.096Z,98827.00
2023-04-01T09:49:16.999Z,98828.80
2023-04-01T09:51:28.970Z,98823.80
2023-04-01T09:53:26.855Z,98827.80
2023-04-01T09:55:36.163Z,98829.40
2023-04-01T09:57:36.284Z,98831.00
2023-04-01T10:00:06.091Z,98835.80
2023-04-01T10:02:11.886Z,98834.00
2023-04-01T10:04:33.496Z,98840.80
2023-04-01T10:07:01.750Z,98840.80
2023-04-01T10:08:56.966Z,98845.80
2023-04-01T10:10:57.705Z,98843.20
2023-04-01T10:13:02.873Z,98848.60
2023-04-01T10:15:10.480Z,98845.40
2023-04-01T10:17:19.206Z,98846.20
2023-04-01T10:19:16.267Z,98847.60
2023-04-01T10:21:43.604Z,98854.20
2023-04-01T10:23:42.608Z,98858.20
2023-04-01T10:25:54.710Z,98855.60
2023-04-01T10:27:55.504Z,98855.80
2023-04-01T10:30:22.085Z,98855.80
2023-04-01T10:32:32.814Z,98861.20
2023-04-01T10:34:35.505Z,98858.80
2023-04-01T10:37:13.244Z,98864.00
2023-04-01T10:38:57.746Z,98863.60
2023-04-01T10:40:39.268Z,98873.20
2023-04-01T10:43:09.288Z,98868.20
2023-04-01T10:45:01.532Z,98866.00
2023-04-01T10:47:02.554Z,98867.00
2023-04-01T10:49:20.498Z,98866.60
2023-04-01T10:51:28.593Z,98867.20
2023-04-01T10:53:46.941Z,98870.80
2023-04-01T10:56:14.860Z,98878.80
2023-04-01T10:58:56.025Z,98875.00
2023-04-01T11:01:24.623Z,98875.40
2023-04-01T11:04:07.732Z,98879.00
2023-04-01T11:06:26.310Z,98878.20
2023-04-01T11:08:55.256Z,98881.40
2023-04-01T11:11:19.665Z,98887.40
2023-04-01T11:13:44.746Z,98889.20
2023-04-01T11:15:31.850Z,98889.80
2023-04-01T11:17:21.202Z,98889.00
2023-04-01T11:19:40.865Z,98891.80
2023-04-01T11:21:58.451Z,98895.60
2023-04-01T11:24:31.770Z,98901.40
2023-04-01T11:26:27.750Z,98900.00
2023-04-01T11:28:41.198Z,98906.00
2023-04-01T11:30:35.794Z,98912.20
2023-04-01T11:32:57.743Z,98911.40
2023-04-01T11:34:57.958Z,98909.80
2023-04-01T11:36:53.927Z,98913.40
2023-04-01T11:38:53.187Z,98912.00
2023-04-01T11:41:37.989Z,98914.80
2023-04-01T11:44:38.277Z,98920.60
2023-04-01T11:46:30.626Z,98921.20
2023-04-01T11:48:49.384Z,98925.80
2023-04-01T11:50:46.726Z,98929.20
2023-04-01T11:52:41.701Z,98926.60
2023-04-01T11:54:30.958Z,98932.60
2023-04-01T11:56:42.979Z,98939.20
2023-04-01T11:58:32.871Z,98936.40
2023-04-01T12:00:22.338Z,98948.80
2023-04-01T12:02:37.882Z,98945.40
2023-04-01T12:04:30.152Z,98951.20
2023-04-01T12:06:14.475Z,98950.20
2023-04-01T12:08:10.860Z,98949.80
2023-04-01T12:09:48.173Z,98949.60
2023-04-01T12:11:45.394Z,98957.60
2023-04-01T12:13:36.281Z,98953.20
2023-04-01T12:15:55.075Z,98957.80
2023-04-01T12:18:02.218Z,98960.20
2023-04-01T12:19:51.631Z,98964.60
2023-04-01T12:21:53.953Z,98960.60
2023-04-01T12:24:01.221Z,98961.40
2023-04-01T12:26:04.021Z,98969.80
2023-04-01T12:28:03.938Z,98972.00
2023-04-01T12:29:49.842Z,98979.60
2023-04-01T12:32:00.916Z,98974.40
2023-04-01T12:33:57.463Z,98975.00
2023-04-01T12:36:20.701Z,98985.00
2023-04-01T12:49:22.133Z,98995.80
2023-04-01T12:51:22.751Z,98992.80
2023-04-01T12:53:23.804Z,98999.20
2023-04-01T12:55:05.646Z,98999.00
2023-04-01T12:57:06.944Z,99004.60
2023-04-01T12:59:01.438Z,99006.60
2023-04-01T13:00:55.137Z,99013.60
2023-04-01T13:02:56.381Z,99012.20
2023-04-01T13:04:50.226Z,99017.60
2023-04-01T13:07:00.365Z,99021.60
2023-04-01T13:08:52.290Z,99028.00
2023-04-01T13:11:01.213Z,99032.60
2023-04-01T13:12:58.561Z,99036.60
2023-04-01T13:15:17.343Z,99033.00
2023-04-01T13:17:49.350Z,99037.00
2023-04-01T13:19:36.161Z,99043.00
2023-04-01T13:21:32.335Z,99042.20
2023-04-01T13:23:28.446Z,99041.80
2023-04-01T13:25:40.037Z,99045.20
2023-04-01T13:27:31.411Z,99043.80
2023-04-01T13:29:27.230Z,99050.80
2023-04-01T13:31:40.457Z,99051.20
2023-04-01T13:33:22.307Z,99051.60
2023-04-01T13:35:17.105Z,99051.80
2023-04-01T13:36:52.579Z,99058.60
2023-04-01T13:38:48.856Z,99062.80
2023-04-01T13:41:06.371Z,99060.20
2023-04-01T13:42:54.916Z,99063.00
2023-04-01T13:44:42.752Z,99065.60
2023-04-01T13:46:39.615Z,99062.80
2023-04-01T13:48:37.081Z,99067.00
2023-04-01T13:50:34.953Z,99070.00
2023-04-01T13:53:04.172Z,99071.40
2023-04-01T13:54:59.673Z,99078.80
2023-04-01T13:57:01.768Z,99079.20
2023-04-01T13:58:36.319Z,99081.60
2023-04-01T14:00:47.120Z,99076.60
2023-04-01T14:02:50.023Z,99081.80
2023-04-01T14:04:40.994Z,99084.00
2023-04-01T14:06:41.224Z,99090.80
2023-04-01T14:08:28.128Z,99084.60
2023-04-01T14:10:08.597Z,99086.60
2023-04-01T14:12:09.590Z,99089.00
2023-04-01T14:14:18.663Z,99096.00
2023-04-01T14:16:14.073Z,99096.80
2023-04-01T14:18:08.381Z,99099.00
2023-04-01T14:20:07.499Z,99105.20
2023-04-01T14:22:26.678Z,99110.00
2023-04-01T14:24:23.778Z,99112.40
2023-04-01T14:26:27.287Z,99113.40
2023-04-01T14:28:56.210Z,99111.40
2023-04-01T14:31:17.548Z,99114.00
2023-04-01T14:33:42.923Z,99115.60
2023-04-01T14:35:48.525Z,99124.80
2023-04-01T14:38:12.980Z,99124.80
2023-04-01T14:40:04.035Z,99129.80
2023-04-01T14:42:26.054Z,99123.60
2023-04-01T14:44:14.751Z,99124.00
2023-04-01T14:46:11.259Z,99122.40
2023-04-01T14:48:17.720Z,99127.80
2023-04-01T14:49:57.382Z,99132.00
2023-04-01T14:51:29.364Z,99127.00
2023-04-01T14:53:30.510Z,99131.00
2023-04-01T14:55:22.040Z,99134.00
2023-04-01T14:57:32.020Z,99133.20
2023-04-01T14:59:27.102Z,99138.20
2023-04-01T15:01:07.973Z,99138.00
2023-04-01T15:02:52.311Z,99140.80
2023-04-01T15:04:51.407Z,99143.40
2023-04-01T15:06:40.107Z,99144.40
2023-04-01T15:08:33.326Z,99145.40
2023-04-01T15:10:47.426Z,99150.40
2023-04-01T15:12:56.679Z,99153.00
2023-04-01T15:15:21.904Z,99154.20
2023-04-01T15:17:44.844Z,99156.60
2023-04-01T15:19:45.946Z,99160.20
2023-04-01T15:22:06.161Z,99160.80
2023-04-01T15:23:54.222Z,99167.40
2023-04-01T15:25:55.204Z,99164.00
2023-04-01T15:27:53.502Z,99173.80
2023-04-01T15:29:46.962Z,99177.40
2023-04-01T15:31:33.827Z,99179.40
2023-04-01T15:33:23.797Z,99181.80
2023-04-01T15:35:25.426Z,99182.20
2023-04-01T15:37:23.973Z,99188.00
2023-04-01T15:39:51.877Z,99182.00
2023-04-01T15:41:37.394Z,99188.80
2023-04-01T15:43:42.133Z,99190.40
2023-04-01T15:45:27.138Z,99193.60
2023-04-01T15:47:29.415Z,99197.80
2023-04-01T15:49:16.952Z,99198.20
2023-04-01T15:51:10.535Z,99197.00
2023-04-01T15:53:38.491Z,99195.20
2023-04-01T15:55:28.687Z,99197.60
2023-04-01T15:57:54.165Z,99203.40
2023-04-01T16:00:28.601Z,99204.20
2023-04-01T16:02:21.128Z,99209.20
2023-04-01T16:04:23.375Z,99209.00
2023-04-01T16:06:37.631Z,99213.20
2023-04-01T16:08:50.745Z,99216.00
2023-04-01T16:10:39.261Z,99216.00
2023-04-01T16:12:30.292Z,99215.40
2023-04-01T16:14:54.324Z,99222.00
2023-04-01T16:16:47.370Z,99220.60
2023-04-01T16:19:11.435Z,99223.00
2023-04-01T16:21:28.137Z,99226.20
2023-04-01T16:23:14.910Z,99229.00
2023-04-01T16:25:02.344Z,99232.80
2023-04-01T16:26:44.111Z,99236.80
2023-04-01T16:28:32.238Z,99241.40
2023-04-01T16:30:36.632Z,99239.80
2023-04-01T16:32:24.650Z,99236.20
2023-04-01T16:34:04.306Z,99235.40
2023-04-01T16:36:00.251Z,99242.40
2023-04-01T16:38:06.874Z,99239.80
2023-04-01T16:40:02.257Z,99241.80
2023-04-01T16:41:50.230Z,99246.20
2023-04-01T16:43:31.922Z,99247.80
2023-04-01T16:45:09.823Z,99253.20
2023-04-01T16:47:15.977Z,99253.00
2023-04-01T16:49:35.768Z,99259.80
2023-04-01T16:51:56.104Z,99259.80
2023-04-01T16:53:53.553Z,99260.80
2023-04-01T16:55:42.133Z,99270.40
2023-04-01T16:57:45.383Z,99271.60
2023-04-01T17:00:16.035Z,99274.20
2023-04-01T17:02:03.565Z,99277.00
2023-04-01T17:03:46.283Z,99279.20
2023-04-01T17:05:18.443Z,99282.40
2023-04-01T17:07:20.744Z,99285.40
2023-04-01T17:09:21.480Z,99285.20
2023-04-01T17:11:05.450Z,99290.40
2023-04-01T17:13:38.506Z,99290.60
2023-04-01T17:15:51.910Z,99296.40
2023-04-01T17:17:49.280Z,99301.80
2023-04-01T17:20:06.817Z,99303.40
2023-04-01T17:21:44.639Z,99309.40
2023-04-01T17:23:39.158Z,99310.80
2023-04-01T17:25:35.038Z,99315.00
2023-04-01T17:27:22.443Z,99313.80
2023-04-01T17:29:28.030Z,99315.00
2023-04-01T17:31:22.112Z,99321.20
2023-04-01T17:33:12.142Z,99321.80
2023-04-01T17:35:54.188Z,99322.80
2023-04-01T17:37:47.084Z,99326.80
2023-04-01T17:39:50.416Z,99328.40
2023-04-01T17:41:26.622Z,99335.00
2023-04-01T17:43:07.351Z,99333.20
2023-04-01T17:44:52.487Z,99333.00
2023-04-01T17:46:31.751Z,99340.60
2023-04-01T17:48:22.003Z,99343.20
2023-04-01T17:50:03.470Z,99346.00
2023-04-01T17:51:52.762Z,99345.20
2023-04-01T17:53:59.841Z,99349.00
2023-04-01T17:55:53.204Z,99356.20
2023-04-01T17:58:08.546Z,99356.00
2023-04-01T18:00:00.185Z,99362.20
2023-04-01T18:01:43.671Z,99358.80
2023-04-01T18:03:59.808Z,99362.80
2023-04-01T18:06:11.850Z,99367.40
2023-04-01T18:08:21.550Z,99369.40
2023-04-01T18:10:23.753Z,99369.80
2023-04-01T18:12:01.502Z,99374.60
2023-04-01T18:14:06.449Z,99385.00
2023-04-01T18:16:19.920Z,99382.20
2023-04-01T18:18:21.062Z,99382.80
2023-04-01T18:20:50.380Z,99384.20
2023-04-01T18:22:29.717Z,99388.80
2023-04-01T18:24:41.706Z,99395.20
2023-04-01T18:26:43.281Z,99397.40
2023-04-01T18:28:32.763Z,99399.40
2023-04-01T18:30:16.876Z,99406.20
2023-04-01T18:32:36.371Z,99407.20
2023-04-01T18:34:32.224Z,99412.60
2023-04-01T18:36:17.207Z,99412.80
2023-04-01T18:38:48.911Z,99412.80
2023-04-01T18:40:32.210Z,99424.60
2023-04-01T18:42:42.415Z,99427.00
2023-04-01T18:44:51.646Z,99432.00
2023-04-01T18:46:53.747Z,99431.60
2023-04-01T18:48:46.816Z,99438.00
2023-04-01T18:51:00.783Z,99445.60
2023-04-01T18:52:40.718Z,99451.00
2023-04-01T18:54:33.255Z,99449.80
2023-04-01T18:56:12.805Z,99453.80
2023-04-01T18:57:59.486Z,99460.00
2023-04-01T19:00:03.401Z,99462.80
2023-04-01T19:02:05.304Z,99463.00
2023-04-01T19:03:54.667Z,99467.60
2023-04-01T19:05:53.774Z,99472.40
2023-04-01T19:07:58.289Z,99478.20
2023-04-01T19:09:49.234Z,99482.20
2023-04-01T19:12:02.560Z,99480.80
2023-04-01T19:14:12.026Z,99493.20
2023-04-01T19:16:16.568Z,99498.00
2023-04-01T19:18:09.668Z,99499.80
2023-04-01T19:20:25.495Z,99508.40
2023-04-01T19:22:34.172Z,99512.00
2023-04-01T19:24:38.472Z,99516.60
2023-04-01T19:26:44.338Z,99522.40
2023-04-01T19:28:37.368Z,99528.00
2023-04-01T19:30:37.265Z,99534.60
2023-04-01T19:32:41.742Z,99533.80
2023-04-01T19:34:50.705Z,99539.60
2023-04-01T19:37:01.085Z,99534.40
2023-04-01T19:39:09.842Z,99541.00
2023-04-01T19:41:23.669Z,99546.20
2023-04-01T19:43:26.978Z,99548.60
2023-04-01T19:45:29.794Z,99549.60
2023-04-01T19:47:24.895Z,99558.80
2023-04-01T19:49:42.249Z,99559.40
2023-04-01T19:51:55.538Z,99567.40
2023-04-01T19:53:52.495Z,99570.20
2023-04-01T19:55:45.844Z,99578.80
2023-04-01T19:57:56.358Z,99577.00
2023-04-01T19:59:52.138Z,99580.00
2023-04-01T20:01:52.052Z,99585.40
2023-04-01T20:03:47.108Z,99586.60
2023-04-01T20:05:50.726Z,99596.20
2023-04-01T20:07:42.242Z,99602.60
2023-04-01T20:09:58.124Z,99602.80
2023-04-01T20:11:43.505Z,99603.80
2023-04-01T20:13:36.438Z,99606.60
2023-04-01T20:15:40.729Z,99615.20
2023-04-01T20:17:24.972Z,99622.00
2023-04-01T20:19:03.793Z,99624.00
2023-04-01T20:20:36.503Z,99624.20
2023-04-01T20:22:38.771Z,99627.60
2023-04-01T20:24:38.978Z,99633.00
2023-04-01T20:26:23.276Z,99641.40
2023-04-01T20:28:15.793Z,99643.40
2023-04-01T20:30:28.077Z,99643.60
2023-04-01T20:32:56.517Z,99648.00
2023-04-01T20:34:55.153Z,99655.40
2023-04-01T20:37:16.327Z,99659.80
2023-04-01T20:39:48.743Z,99663.40
2023-04-01T20:41:50.463Z,99673.20
2023-04-01T20:44:04.785Z,99674.00
2023-04-01T20:46:32.510Z,99677.40
2023-04-01T20:48:45.558Z,99685.40
2023-04-01T20:50:40.762Z,99685.40
2023-04-01T20:52:26.915Z,99687.20
2023-04-01T20:54:19.838Z,99693.60
2023-04-01T20:56:32.397Z,99700.40
2023-04-01T20:58:31.607Z,99704.00
2023-04-01T21:00:34.155Z,99710.40
2023-04-01T21:02:14.587Z,99712.60
2023-04-01T21:04:13.617Z,99719.00
2023-04-01T21:06:18.457Z,99717.60
2023-04-01T21:08:02.752Z,99724.60
2023-04-01T21:10:01.947Z,99728.60
2023-04-01T21:11:47.223Z,99731.40
2023-04-01T21:13:28.192Z,99738.40
2023-04-01T21:15:47.889Z,99741.60
2023-04-01T21:17:41.572Z,99750.40
2023-04-01T21:19:56.291Z,99753.40
2023-04-01T21:21:55.651Z,99760.60
2023-04-01T21:23:46.836Z,99766.20
2023-04-01T21:25:52.898Z,99769.60
2023-04-01T21:28:14.544Z,99781.60
2023-04-01T21:30:02.801Z,99788.60
2023-04-01T21:32:21.882Z,99791.00
2023-04-01T21:34:31.275Z,99800.00
2023-04-01T21:36:42.258Z,99802.80
2023-04-01T21:38:51.107Z,99808.00
2023-04-01T21:40:49.381Z,99814.00
2023-04-01T21:43:21.433Z,99822.80
2023-04-01T21:45:50.050Z,99825.00
2023-04-01T21:47:40.755Z,99833.60
2023-04-01T21:49:37.147Z,99836.80
2023-04-01T21:51:20.702Z,99838.00
2023-04-01T21:53:34.481Z,99839.60
2023-04-01T21:55:43.315Z,99847.60
2023-04-01T21:58:09.711Z,99854.80
2023-04-01T21:59:41.502Z,99860.80
2023-04-01T22:01:53.721Z,99865.00
2023-04-01T22:03:59.825Z,99868.60
2023-04-01T22:05:53.281Z,99877.20
2023-04-01T22:07:38.224Z,99882.60
2023-04-01T22:09:18.498Z,99885.80
2023-04-01T22:11:35.489Z,99883.00
2023-04-01T22:13:55.504Z,99887.80
2023-04-01T22:15:46.325Z,99899.80
2023-04-01T22:17:34.091Z,99900.60
2023-04-01T22:19:23.434Z,99904.60
2023-04-01T22:21:06.208Z,99905.00
2023-04-01T22:23:05.921Z,99908.80
2023-04-01T22:24:56.954Z,99910.40
2023-04-01T22:27:14.339Z,99917.60
2023-04-01T22:29:21.495Z,99921.00
2023-04-01T22:31:02.661Z,99922.00